Cape Romanzof, Alaska
Current Conditions -  °F | °C
As of 10:31 AM on Sunday 21 Dec 2014 (Local Time) from PACZ Reporting Station
Light Snow Light Snow  
Wind Chill: -12°   Ceiling: 900
Heat Index: 12°   Visibility: 6mi
Dew Point:   Wind: 43mph
Humidity: 85%   Direction: 20°NNE
Pressure: 29.43"   Gusts: 54mph
Location:  61.78°N, 166.04°W
Report Text: PACZ 211931Z AUTO 02037G47KT 6SM -SN BKN009 M11/M13 A2943 RMK AO2 SLP981
Loading
Personal Weather Stations






























Interactive Weather Map New forecast layout! Learn more

10-Day Weather Forecast

Advertisements
Track Severe Weather on mobile